createdAt,value
2017-02-01T00:00:57.413Z,0
2017-02-01T00:01:57.421Z,0
2017-02-01T00:02:57.423Z,0
2017-02-01T00:03:57.434Z,0
2017-02-01T00:04:57.447Z,0
2017-02-01T00:05:57.457Z,0
2017-02-01T00:06:57.472Z,0
2017-02-01T00:07:57.479Z,0
2017-02-01T00:08:57.497Z,0
2017-02-01T00:09:57.504Z,0
2017-02-01T00:10:57.516Z,0
2017-02-01T00:11:57.524Z,0
2017-02-01T00:12:57.536Z,0
2017-02-01T00:13:57.571Z,0
2017-02-01T00:14:57.562Z,0
2017-02-01T00:15:57.570Z,0
2017-02-01T00:16:57.580Z,0
2017-02-01T00:17:57.600Z,0
2017-02-01T00:18:57.604Z,0
2017-02-01T00:19:57.615Z,0
2017-02-01T00:20:57.626Z,0
2017-02-01T00:21:57.640Z,0
2017-02-01T00:22:57.644Z,0
2017-02-01T00:23:57.265Z,0
2017-02-01T00:24:57.670Z,0
2017-02-01T00:25:57.683Z,0
2017-02-01T00:26:57.695Z,0
2017-02-01T00:27:57.701Z,0
2017-02-01T00:28:57.719Z,0
2017-02-01T00:29:57.726Z,0
2017-02-01T00:30:57.737Z,0
2017-02-01T00:31:57.753Z,0
2017-02-01T00:32:57.367Z,0
2017-02-01T00:33:57.776Z,0
2017-02-01T00:34:57.782Z,0
2017-02-01T00:35:57.792Z,0
2017-02-01T00:36:57.808Z,0
2017-02-01T00:37:57.819Z,0
2017-02-01T00:38:57.827Z,0
2017-02-01T00:39:57.840Z,0
2017-02-01T00:40:57.854Z,0
2017-02-01T00:41:57.864Z,0
2017-02-01T00:42:57.874Z,0
2017-02-01T00:43:57.883Z,0
2017-02-01T00:44:57.893Z,0
2017-02-01T00:45:57.505Z,0
2017-02-01T00:46:57.943Z,0
2017-02-01T00:47:57.932Z,0
2017-02-01T00:48:57.943Z,0
2017-02-01T00:49:57.959Z,0
2017-02-01T00:50:57.966Z,0
2017-02-01T00:51:57.971Z,0
2017-02-01T00:52:57.987Z,0
2017-02-01T00:53:58.002Z,0
2017-02-01T00:54:58.007Z,0
2017-02-01T00:55:58.023Z,0
2017-02-01T00:56:58.025Z,0
2017-02-01T00:57:58.056Z,0
2017-02-01T00:58:58.050Z,0
2017-02-01T00:59:58.068Z,0
2017-02-01T01:00:58.077Z,0
2017-02-01T01:01:58.088Z,0
2017-02-01T01:02:58.094Z,0
2017-02-01T01:03:58.107Z,0
2017-02-01T01:04:58.117Z,0
2017-02-01T01:05:58.128Z,0
2017-02-01T01:06:58.140Z,0
2017-02-01T01:07:58.147Z,0
2017-02-01T01:08:58.162Z,0
2017-02-01T01:09:58.182Z,0
2017-02-01T01:10:57.797Z,0
2017-02-01T01:11:58.208Z,0
2017-02-01T01:12:58.209Z,0
2017-02-01T01:13:58.213Z,0
2017-02-01T01:14:58.231Z,0
2017-02-01T01:15:58.239Z,0
2017-02-01T01:16:58.249Z,0
2017-02-01T01:17:57.487Z,0
2017-02-01T01:18:58.271Z,0
2017-02-01T01:19:58.284Z,0
2017-02-01T01:20:58.294Z,0
2017-02-01T01:21:58.301Z,0
2017-02-01T01:22:58.314Z,0
2017-02-01T01:23:58.327Z,0
2017-02-01T01:24:58.343Z,0
2017-02-01T01:25:58.384Z,0
2017-02-01T01:26:58.353Z,0
2017-02-01T01:27:58.371Z,0
2017-02-01T01:28:58.382Z,0
2017-02-01T01:29:58.389Z,0
2017-02-01T01:30:58.397Z,0
2017-02-01T01:31:58.417Z,0
2017-02-01T01:32:58.431Z,0
2017-02-01T01:33:58.450Z,0
2017-02-01T01:34:58.450Z,0
2017-02-01T01:35:58.487Z,0
2017-02-01T01:36:58.500Z,0
2017-02-01T01:37:58.479Z,0
2017-02-01T01:38:58.495Z,0
2017-02-01T01:39:58.113Z,0
2017-02-01T01:40:58.514Z,0
2017-02-01T01:41:58.532Z,0
2017-02-01T01:42:58.136Z,0
2017-02-01T01:43:58.552Z,0
2017-02-01T01:44:58.167Z,0
2017-02-01T01:45:58.175Z,0
2017-02-01T01:46:58.585Z,0
2017-02-01T01:47:58.588Z,0
2017-02-01T01:48:58.618Z,0
2017-02-01T01:49:58.213Z,0
2017-02-01T01:50:58.224Z,0
2017-02-01T01:51:58.632Z,0
2017-02-01T01:52:58.260Z,0
2017-02-01T01:53:58.653Z,0
2017-02-01T01:54:58.277Z,0
2017-02-01T01:55:58.677Z,0
2017-02-01T01:56:58.691Z,0
2017-02-01T01:57:58.703Z,0
2017-02-01T01:58:58.710Z,0
2017-02-01T01:59:58.725Z,0
2017-02-01T02:00:58.731Z,0
2017-02-01T02:01:58.743Z,0
2017-02-01T02:02:58.752Z,0
2017-02-01T02:03:58.825Z,0
2017-02-01T02:04:58.790Z,0
2017-02-01T02:05:58.787Z,0
2017-02-01T02:06:58.799Z,0
2017-02-01T02:07:58.807Z,0
2017-02-01T02:08:58.428Z,0
2017-02-01T02:09:58.834Z,0
2017-02-01T02:10:58.841Z,0
2017-02-01T02:11:58.855Z,0
2017-02-01T02:12:58.905Z,0
2017-02-01T02:13:58.477Z,0
2017-02-01T02:14:58.914Z,0
2017-02-01T02:15:58.903Z,0
2017-02-01T02:16:58.902Z,0
2017-02-01T02:17:58.921Z,0
2017-02-01T02:18:58.960Z,0
2017-02-01T02:19:59.001Z,0
2017-02-01T02:20:58.952Z,0
2017-02-01T02:21:58.968Z,0
2017-02-01T02:22:58.974Z,0
2017-02-01T02:23:58.987Z,0
2017-02-01T02:24:59.001Z,0
2017-02-01T02:25:58.671Z,0
2017-02-01T02:26:58.631Z,0
2017-02-01T02:27:59.045Z,0
2017-02-01T02:28:59.036Z,0
2017-02-01T02:29:59.051Z,0
2017-02-01T02:30:59.062Z,0
2017-02-01T02:31:58.686Z,0
2017-02-01T02:32:59.085Z,0
2017-02-01T02:33:59.107Z,0
2017-02-01T02:34:59.108Z,0
2017-02-01T02:35:58.729Z,0
2017-02-01T02:36:59.131Z,0
2017-02-01T02:37:59.138Z,0
2017-02-01T02:38:59.152Z,0
2017-02-01T02:39:59.175Z,0
2017-02-01T02:40:58.778Z,0
2017-02-01T02:41:58.796Z,0
2017-02-01T02:42:59.198Z,0
2017-02-01T02:43:59.211Z,0
2017-02-01T02:44:59.220Z,0
2017-02-01T02:45:59.233Z,0
2017-02-01T02:46:59.243Z,0
2017-02-01T02:47:59.252Z,0
2017-02-01T02:48:59.266Z,0
2017-02-01T02:49:59.281Z,0
2017-02-01T02:50:59.286Z,0
2017-02-01T02:51:59.298Z,0
2017-02-01T02:52:59.305Z,0
2017-02-01T02:53:59.389Z,0
2017-02-01T02:54:59.362Z,0
2017-02-01T02:55:59.337Z,0
2017-02-01T02:56:59.351Z,0
2017-02-01T02:57:59.365Z,0
2017-02-01T02:58:59.378Z,0
2017-02-01T02:59:59.382Z,0
2017-02-01T03:00:59.403Z,0
2017-02-01T03:01:59.017Z,0
2017-02-01T03:02:59.428Z,0
2017-02-01T03:03:59.433Z,0
2017-02-01T03:04:59.451Z,0
2017-02-01T03:05:59.459Z,0
2017-02-01T03:06:59.466Z,0
2017-02-01T03:07:59.474Z,0
2017-02-01T03:08:59.089Z,0
2017-02-01T03:09:59.502Z,0
2017-02-01T03:10:59.510Z,0
2017-02-01T03:11:59.522Z,0
2017-02-01T03:12:59.536Z,0
2017-02-01T03:13:59.544Z,0
2017-02-01T03:14:59.581Z,0
2017-02-01T03:15:59.572Z,0
2017-02-01T03:16:59.582Z,0
2017-02-01T03:17:59.589Z,0
2017-02-01T03:18:59.594Z,0
2017-02-01T03:19:59.216Z,0
2017-02-01T03:20:59.628Z,0
2017-02-01T03:21:59.632Z,0
2017-02-01T03:22:59.639Z,0
2017-02-01T03:23:59.262Z,0
2017-02-01T03:24:59.663Z,0
2017-02-01T03:25:59.675Z,0
2017-02-01T03:26:59.336Z,0
2017-02-01T03:27:59.705Z,0
2017-02-01T03:28:59.707Z,0
2017-02-01T03:29:59.720Z,0
2017-02-01T03:30:59.340Z,0
2017-02-01T03:31:59.780Z,0
2017-02-01T03:32:59.755Z,0
2017-02-01T03:33:59.768Z,0
2017-02-01T03:34:59.779Z,0
2017-02-01T03:35:59.790Z,0
2017-02-01T03:36:59.834Z,0
2017-02-01T03:37:59.420Z,0
2017-02-01T03:38:59.832Z,0
2017-02-01T03:39:59.838Z,0
2017-02-01T03:40:59.847Z,0
2017-02-01T03:41:59.861Z,0
2017-02-01T03:42:59.870Z,0
2017-02-01T03:43:59.488Z,0
2017-02-01T03:44:59.889Z,0
2017-02-01T03:45:59.907Z,0
2017-02-01T03:46:59.908Z,0
2017-02-01T03:47:59.921Z,0
2017-02-01T03:48:59.935Z,0
2017-02-01T03:49:59.552Z,0
2017-02-01T03:50:59.961Z,0
2017-02-01T03:51:59.966Z,0
2017-02-01T03:52:59.987Z,0
2017-02-01T03:53:59.991Z,0
2017-02-01T03:55:00.148Z,0
2017-02-01T03:55:59.672Z,0
2017-02-01T03:57:00.025Z,0
2017-02-01T03:58:00.271Z,0
2017-02-01T03:59:00.057Z,0
2017-02-01T04:00:00.059Z,0
2017-02-01T04:00:59.285Z,0
2017-02-01T04:01:59.682Z,0
2017-02-01T04:03:00.094Z,0
2017-02-01T04:04:00.100Z,0
2017-02-01T04:05:00.114Z,0
2017-02-01T04:06:00.125Z,0
2017-02-01T04:07:00.136Z,0
2017-02-01T04:08:00.142Z,0
2017-02-01T04:09:00.159Z,0
2017-02-01T04:10:00.168Z,0
2017-02-01T04:11:00.191Z,0
2017-02-01T04:12:00.189Z,0
2017-02-01T04:12:59.799Z,0
2017-02-01T04:13:59.819Z,0
2017-02-01T04:15:00.253Z,0
2017-02-01T04:16:00.266Z,0
2017-02-01T04:17:00.238Z,0
2017-02-01T04:18:00.260Z,0
2017-02-01T04:19:00.269Z,0
2017-02-01T04:20:00.283Z,0
2017-02-01T04:21:00.294Z,0
2017-02-01T04:22:00.303Z,0
2017-02-01T04:23:00.315Z,0
2017-02-01T04:24:00.355Z,0
2017-02-01T04:25:00.339Z,0
2017-02-01T04:26:00.377Z,0
2017-02-01T04:27:00.356Z,0
2017-02-01T04:28:00.369Z,0
2017-02-01T04:29:00.376Z,0
2017-02-01T04:30:00.440Z,0
2017-02-01T04:31:00.406Z,0
2017-02-01T04:32:00.415Z,0
2017-02-01T04:33:00.027Z,0
2017-02-01T04:34:00.433Z,0
2017-02-01T04:35:01.076Z,0
2017-02-01T04:36:00.465Z,0
2017-02-01T04:37:00.467Z,0
2017-02-01T04:38:00.499Z,0
2017-02-01T04:39:00.499Z,0
2017-02-01T04:40:00.500Z,0
2017-02-01T04:41:00.541Z,0
2017-02-01T04:42:00.527Z,0
2017-02-01T04:43:00.539Z,0
2017-02-01T04:44:00.577Z,0
2017-02-01T04:45:00.554Z,0
2017-02-01T04:46:00.568Z,0
2017-02-01T04:47:00.578Z,0
2017-02-01T04:48:00.607Z,0
2017-02-01T04:49:00.605Z,0
2017-02-01T04:50:00.647Z,0
2017-02-01T04:51:00.621Z,0
2017-02-01T04:52:00.631Z,0
2017-02-01T04:53:00.646Z,0
2017-02-01T04:54:00.658Z,0
2017-02-01T04:55:00.673Z,0
2017-02-01T04:56:00.688Z,0
2017-02-01T04:57:00.685Z,0
2017-02-01T04:58:00.700Z,0
2017-02-01T04:59:00.324Z,0
2017-02-01T05:00:00.730Z,0
2017-02-01T05:01:00.734Z,0
2017-02-01T05:02:00.759Z,0
2017-02-01T05:03:00.764Z,0
2017-02-01T05:04:00.764Z,0
2017-02-01T05:05:00.780Z,0
2017-02-01T05:06:00.814Z,0
2017-02-01T05:07:00.799Z,0
2017-02-01T05:08:00.415Z,0
2017-02-01T05:09:00.819Z,0
2017-02-01T05:10:00.828Z,0
2017-02-01T05:11:00.843Z,0
2017-02-01T05:12:00.856Z,0
2017-02-01T05:13:00.877Z,0
2017-02-01T05:14:00.884Z,0
2017-02-01T05:15:00.919Z,0
2017-02-01T05:16:00.903Z,0
2017-02-01T05:17:00.907Z,0
2017-02-01T05:18:00.927Z,0
2017-02-01T05:19:00.929Z,0
2017-02-01T05:20:00.939Z,0
2017-02-01T05:21:00.955Z,0
2017-02-01T05:22:00.972Z,0
2017-02-01T05:23:00.986Z,0
2017-02-01T05:24:00.989Z,0
2017-02-01T05:25:01.055Z,0
2017-02-01T05:26:01.010Z,0
2017-02-01T05:27:01.023Z,0
2017-02-01T05:28:01.033Z,0
2017-02-01T05:29:01.046Z,0
2017-02-01T05:30:01.062Z,0
2017-02-01T05:31:01.071Z,0
2017-02-01T05:32:00.680Z,0
2017-02-01T05:33:01.078Z,0
2017-02-01T05:34:01.092Z,0
2017-02-01T05:35:01.107Z,0
2017-02-01T05:36:01.116Z,0
2017-02-01T05:37:01.139Z,0
2017-02-01T05:38:01.146Z,0
2017-02-01T05:39:01.150Z,0
2017-02-01T05:40:01.166Z,0
2017-02-01T05:41:01.183Z,0
2017-02-01T05:42:01.183Z,0
2017-02-01T05:43:01.202Z,0
2017-02-01T05:44:01.210Z,0
2017-02-01T05:45:01.212Z,0
2017-02-01T05:46:01.242Z,0
2017-02-01T05:47:01.240Z,0
2017-02-01T05:48:00.859Z,0
2017-02-01T05:49:00.861Z,0
2017-02-01T05:50:01.271Z,0
2017-02-01T05:51:01.286Z,0
2017-02-01T05:52:01.297Z,0
2017-02-01T05:53:01.299Z,0
2017-02-01T05:54:01.341Z,0
2017-02-01T05:55:01.325Z,0
2017-02-01T05:56:01.337Z,0
2017-02-01T05:57:01.343Z,0
2017-02-01T05:58:01.366Z,0
2017-02-01T05:59:01.373Z,0
2017-02-01T06:00:01.384Z,0
2017-02-01T06:01:00.998Z,0
2017-02-01T06:02:01.401Z,0
2017-02-01T06:03:01.411Z,0
2017-02-01T06:04:01.423Z,0
2017-02-01T06:05:01.050Z,0
2017-02-01T06:06:01.446Z,0
2017-02-01T06:07:01.454Z,0
2017-02-01T06:08:01.471Z,0
2017-02-01T06:09:01.479Z,0
2017-02-01T06:10:01.496Z,0
2017-02-01T06:11:01.498Z,0
2017-02-01T06:12:01.509Z,0
2017-02-01T06:13:01.522Z,0
2017-02-01T06:14:01.133Z,0
2017-02-01T06:15:01.546Z,0
2017-02-01T06:16:01.555Z,0
2017-02-01T06:17:01.568Z,0
2017-02-01T06:18:01.581Z,0
2017-02-01T06:19:01.196Z,0
2017-02-01T06:20:01.593Z,0
2017-02-01T06:21:01.609Z,0
2017-02-01T06:22:01.633Z,0
2017-02-01T06:23:01.628Z,0
2017-02-01T06:24:01.645Z,0
2017-02-01T06:25:01.647Z,0
2017-02-01T06:26:01.688Z,0
2017-02-01T06:27:01.667Z,0
2017-02-01T06:28:01.286Z,0
2017-02-01T06:29:01.697Z,4
2017-02-01T06:30:01.702Z,4
2017-02-01T06:31:01.717Z,0
2017-02-01T06:32:01.340Z,0
2017-02-01T06:33:01.747Z,4
2017-02-01T06:34:01.757Z,4
2017-02-01T06:35:01.763Z,4
2017-02-01T06:36:01.768Z,4
2017-02-01T06:37:01.785Z,4
2017-02-01T06:38:01.790Z,8
2017-02-01T06:39:01.805Z,4
2017-02-01T06:40:01.809Z,8
2017-02-01T06:41:01.826Z,8
2017-02-01T06:42:01.835Z,8
2017-02-01T06:43:01.845Z,12
2017-02-01T06:44:01.881Z,8
2017-02-01T06:45:01.871Z,12
2017-02-01T06:46:01.880Z,12
2017-02-01T06:47:01.888Z,12
2017-02-01T06:48:01.895Z,16
2017-02-01T06:49:01.911Z,16
2017-02-01T06:50:01.922Z,16
2017-02-01T06:51:01.930Z,16
2017-02-01T06:52:01.946Z,16
2017-02-01T06:53:01.953Z,16
2017-02-01T06:54:01.969Z,16
2017-02-01T06:55:01.984Z,20
2017-02-01T06:56:01.984Z,24
2017-02-01T06:57:02.004Z,24
2017-02-01T06:58:02.010Z,28
2017-02-01T06:59:02.032Z,28
2017-02-01T07:00:02.028Z,32
2017-02-01T07:01:02.043Z,36
2017-02-01T07:02:02.052Z,40
2017-02-01T07:03:02.070Z,40
2017-02-01T07:04:02.081Z,44
2017-02-01T07:05:02.098Z,52
2017-02-01T07:06:01.696Z,52
2017-02-01T07:07:02.115Z,52
2017-02-01T07:08:02.120Z,52
2017-02-01T07:09:02.128Z,52
2017-02-01T07:10:02.149Z,52
2017-02-01T07:11:02.145Z,56
2017-02-01T07:12:02.170Z,60
2017-02-01T07:13:02.175Z,64
2017-02-01T07:14:02.188Z,64
2017-02-01T07:15:02.215Z,68
2017-02-01T07:16:02.203Z,68
2017-02-01T07:17:02.229Z,68
2017-02-01T07:18:01.857Z,72
2017-02-01T07:19:02.253Z,68
2017-02-01T07:20:02.251Z,68
2017-02-01T07:21:02.268Z,64
2017-02-01T07:22:02.278Z,64
2017-02-01T07:23:02.297Z,64
2017-02-01T07:24:02.287Z,64
2017-02-01T07:25:02.299Z,60
2017-02-01T07:26:02.316Z,64
2017-02-01T07:27:02.362Z,68
2017-02-01T07:28:02.339Z,68
2017-02-01T07:29:02.352Z,72
2017-02-01T07:30:02.358Z,72
2017-02-01T07:31:02.377Z,76
2017-02-01T07:32:01.987Z,76
2017-02-01T07:33:02.448Z,76
2017-02-01T07:34:02.399Z,72
2017-02-01T07:35:02.408Z,72
2017-02-01T07:36:02.421Z,72
2017-02-01T07:37:02.435Z,76
2017-02-01T07:38:02.449Z,76
2017-02-01T07:39:02.481Z,84
2017-02-01T07:40:02.470Z,96
2017-02-01T07:41:02.483Z,100
2017-02-01T07:42:02.487Z,100
2017-02-01T07:43:02.498Z,108
2017-02-01T07:44:02.516Z,128
2017-02-01T07:45:02.525Z,132
2017-02-01T07:46:02.538Z,136
2017-02-01T07:47:02.539Z,136
2017-02-01T07:48:02.560Z,136
2017-02-01T07:49:02.568Z,148
2017-02-01T07:50:02.582Z,156
2017-02-01T07:51:02.589Z,164
2017-02-01T07:52:02.600Z,172
2017-02-01T07:53:02.614Z,172
2017-02-01T07:54:02.624Z,172
2017-02-01T07:55:02.634Z,164
2017-02-01T07:56:02.645Z,156
2017-02-01T07:57:02.656Z,160
2017-02-01T07:58:02.666Z,164
2017-02-01T07:59:02.677Z,168
2017-02-01T08:00:02.709Z,172
2017-02-01T08:01:02.710Z,180
2017-02-01T08:02:02.709Z,188
2017-02-01T08:03:02.721Z,196
2017-02-01T08:04:02.736Z,204
2017-02-01T08:05:02.745Z,204
2017-02-01T08:06:02.756Z,216
2017-02-01T08:07:02.767Z,220
2017-02-01T08:08:02.388Z,220
2017-02-01T08:09:02.789Z,220
2017-02-01T08:10:02.412Z,220
2017-02-01T08:11:02.820Z,224
2017-02-01T08:12:02.824Z,228
2017-02-01T08:13:02.443Z,228
2017-02-01T08:14:02.848Z,228
2017-02-01T08:15:02.858Z,236
2017-02-01T08:16:02.884Z,252
2017-02-01T08:17:02.884Z,264
2017-02-01T08:18:02.896Z,272
2017-02-01T08:19:02.901Z,276
2017-02-01T08:20:02.921Z,276
2017-02-01T08:21:02.529Z,276
2017-02-01T08:22:02.537Z,288
2017-02-01T08:23:02.966Z,308
2017-02-01T08:24:02.961Z,316
2017-02-01T08:25:02.966Z,320
2017-02-01T08:26:02.984Z,320
2017-02-01T08:27:02.599Z,328
2017-02-01T08:28:03.004Z,340
2017-02-01T08:29:03.015Z,360
2017-02-01T08:30:03.036Z,396
2017-02-01T08:31:03.036Z,424
2017-02-01T08:32:03.052Z,448
2017-02-01T08:33:03.058Z,484
2017-02-01T08:34:02.668Z,488
2017-02-01T08:35:03.081Z,464
2017-02-01T08:36:02.694Z,432
2017-02-01T08:37:03.123Z,420
2017-02-01T08:38:02.718Z,432
2017-02-01T08:39:03.130Z,448
2017-02-01T08:40:03.155Z,456
2017-02-01T08:41:03.148Z,452
2017-02-01T08:42:03.153Z,456
2017-02-01T08:43:03.170Z,460
2017-02-01T08:44:03.196Z,480
2017-02-01T08:45:03.198Z,504
2017-02-01T08:46:03.213Z,520
2017-02-01T08:47:03.218Z,548
2017-02-01T08:48:03.228Z,548
2017-02-01T08:49:02.851Z,548
2017-02-01T08:50:03.272Z,548
2017-02-01T08:51:03.276Z,524
2017-02-01T08:52:03.282Z,504
2017-02-01T08:53:03.280Z,492
2017-02-01T08:54:03.299Z,496
2017-02-01T08:55:03.310Z,492
2017-02-01T08:56:02.920Z,488
2017-02-01T08:57:03.326Z,480
2017-02-01T08:58:02.938Z,480
2017-02-01T08:59:03.338Z,524
2017-02-01T09:00:03.363Z,568
2017-02-01T09:01:02.978Z,596
2017-02-01T09:02:03.019Z,584
2017-02-01T09:03:03.036Z,584
2017-02-01T09:04:03.415Z,576
2017-02-01T09:05:03.409Z,548
2017-02-01T09:06:03.040Z,612
2017-02-01T09:07:03.433Z,652
2017-02-01T09:08:03.453Z,688
2017-02-01T09:09:03.063Z,712
2017-02-01T09:10:03.084Z,712
2017-02-01T09:11:03.489Z,700
2017-02-01T09:12:03.501Z,700
2017-02-01T09:13:03.509Z,724
2017-02-01T09:14:03.137Z,780
2017-02-01T09:15:03.173Z,836
2017-02-01T09:16:02.743Z,872
2017-02-01T09:17:03.148Z,892
2017-02-01T09:18:03.559Z,900
2017-02-01T09:19:03.585Z,916
2017-02-01T09:20:03.197Z,932
2017-02-01T09:21:03.611Z,948
2017-02-01T09:22:03.229Z,940
2017-02-01T09:23:03.624Z,916
2017-02-01T09:24:03.653Z,896
2017-02-01T09:25:03.649Z,884
2017-02-01T09:26:03.653Z,880
2017-02-01T09:27:03.277Z,892
2017-02-01T09:28:03.290Z,920
2017-02-01T09:29:03.295Z,960
2017-02-01T09:30:03.357Z,968
2017-02-01T09:31:03.711Z,952
2017-02-01T09:32:02.955Z,944
2017-02-01T09:33:02.956Z,936
2017-02-01T09:34:03.745Z,928
2017-02-01T09:35:03.771Z,952
2017-02-01T09:36:03.383Z,956
2017-02-01T09:37:03.782Z,940
2017-02-01T09:38:03.408Z,920
2017-02-01T09:39:03.827Z,904
2017-02-01T09:40:03.824Z,904
2017-02-01T09:41:03.433Z,896
2017-02-01T09:42:03.850Z,908
2017-02-01T09:43:03.854Z,908
2017-02-01T09:44:03.469Z,868
2017-02-01T09:45:03.909Z,860
2017-02-01T09:46:03.508Z,896
2017-02-01T09:47:03.102Z,924
2017-02-01T09:48:03.916Z,936
2017-02-01T09:49:03.523Z,948
2017-02-01T09:50:03.935Z,916
2017-02-01T09:51:03.947Z,876
2017-02-01T09:52:03.572Z,884
2017-02-01T09:53:03.969Z,888
2017-02-01T09:54:03.990Z,920
2017-02-01T09:55:03.993Z,972
2017-02-01T09:56:04.008Z,964
2017-02-01T09:57:04.052Z,920
2017-02-01T09:58:04.029Z,912
2017-02-01T09:59:03.651Z,928
2017-02-01T10:00:04.083Z,928
2017-02-01T10:01:04.145Z,940
2017-02-01T10:02:03.680Z,960
2017-02-01T10:03:04.092Z,980
2017-02-01T10:04:03.703Z,984
2017-02-01T10:05:04.110Z,988
2017-02-01T10:06:03.733Z,1012
2017-02-01T10:07:04.142Z,1044
2017-02-01T10:08:03.543Z,1060
2017-02-01T10:09:04.152Z,1048
2017-02-01T10:10:04.245Z,1024
2017-02-01T10:11:03.795Z,1024
2017-02-01T10:12:04.195Z,1036
2017-02-01T10:13:04.210Z,1052
2017-02-01T10:14:04.227Z,1028
2017-02-01T10:15:04.248Z,940
2017-02-01T10:16:04.240Z,852
2017-02-01T10:17:04.272Z,808
2017-02-01T10:18:04.287Z,796
2017-02-01T10:19:04.283Z,768
2017-02-01T10:20:04.875Z,728
2017-02-01T10:21:04.306Z,696
2017-02-01T10:22:04.350Z,692
2017-02-01T10:23:04.805Z,712
2017-02-01T10:24:04.048Z,748
2017-02-01T10:25:04.353Z,796
2017-02-01T10:26:04.369Z,840
2017-02-01T10:27:04.373Z,856
2017-02-01T10:28:03.998Z,852
2017-02-01T10:29:04.005Z,824
2017-02-01T10:30:04.415Z,812
2017-02-01T10:31:04.041Z,816
2017-02-01T10:32:04.479Z,828
2017-02-01T10:33:04.449Z,852
2017-02-01T10:34:04.071Z,880
2017-02-01T10:35:04.477Z,892
2017-02-01T10:36:04.089Z,876
2017-02-01T10:37:04.099Z,852
2017-02-01T10:38:04.519Z,832
2017-02-01T10:39:04.526Z,820
2017-02-01T10:40:04.532Z,800
2017-02-01T10:41:04.564Z,784
2017-02-01T10:42:04.559Z,776
2017-02-01T10:43:04.571Z,748
2017-02-01T10:44:04.194Z,700
2017-02-01T10:45:04.595Z,672
2017-02-01T10:46:04.214Z,652
2017-02-01T10:47:04.628Z,648
2017-02-01T10:48:04.631Z,664
2017-02-01T10:49:04.641Z,680
2017-02-01T10:50:04.683Z,680
2017-02-01T10:51:04.312Z,684
2017-02-01T10:52:04.313Z,688
2017-02-01T10:53:04.299Z,692
2017-02-01T10:54:05.720Z,700
2017-02-01T10:55:04.714Z,716
2017-02-01T10:56:04.727Z,736
2017-02-01T10:57:04.743Z,732
2017-02-01T10:58:04.749Z,740
2017-02-01T10:59:03.971Z,764
2017-02-01T11:00:04.476Z,792
2017-02-01T11:01:04.858Z,816
2017-02-01T11:02:04.788Z,832
2017-02-01T11:03:04.805Z,836
2017-02-01T11:04:04.427Z,832
2017-02-01T11:05:04.841Z,836
2017-02-01T11:06:04.854Z,864
2017-02-01T11:07:04.860Z,912
2017-02-01T11:08:04.474Z,948
2017-02-01T11:09:04.493Z,952
2017-02-01T11:10:04.906Z,928
2017-02-01T11:11:04.516Z,896
2017-02-01T11:12:04.924Z,880
2017-02-01T11:13:04.537Z,860
2017-02-01T11:14:07.109Z,856
2017-02-01T11:15:04.567Z,852
2017-02-01T11:16:04.977Z,848
2017-02-01T11:17:04.971Z,828
2017-02-01T11:18:04.596Z,808
2017-02-01T11:19:05.008Z,840
2017-02-01T11:20:05.013Z,852
2017-02-01T11:21:05.028Z,844
2017-02-01T11:22:05.038Z,852
2017-02-01T11:23:05.052Z,876
2017-02-01T11:24:04.668Z,900
2017-02-01T11:25:05.077Z,908
2017-02-01T11:26:05.092Z,904
2017-02-01T11:27:05.142Z,892
2017-02-01T11:28:05.116Z,872
2017-02-01T11:29:05.126Z,860
2017-02-01T11:30:04.745Z,868
2017-02-01T11:31:05.150Z,904
2017-02-01T11:32:05.159Z,912
2017-02-01T11:33:05.168Z,896
2017-02-01T11:34:05.176Z,892
2017-02-01T11:35:05.196Z,908
2017-02-01T11:36:05.211Z,932
2017-02-01T11:37:05.215Z,936
2017-02-01T11:38:05.237Z,936
2017-02-01T11:39:05.439Z,940
2017-02-01T11:40:05.261Z,960
2017-02-01T11:41:05.276Z,976
2017-02-01T11:42:05.285Z,992
2017-02-01T11:43:05.290Z,996
2017-02-01T11:44:05.314Z,996
2017-02-01T11:45:05.319Z,988
2017-02-01T11:46:05.322Z,984
2017-02-01T11:47:05.360Z,984
2017-02-01T11:48:05.357Z,1004
2017-02-01T11:49:05.364Z,1016
2017-02-01T11:50:05.385Z,1012
2017-02-01T11:51:05.388Z,1004
2017-02-01T11:52:05.020Z,1000
2017-02-01T11:53:05.019Z,1004
2017-02-01T11:54:05.427Z,1012
2017-02-01T11:55:05.043Z,1040
2017-02-01T11:56:05.449Z,1080
2017-02-01T11:57:05.064Z,1108
2017-02-01T11:58:05.486Z,1108
2017-02-01T11:59:05.489Z,1096
2017-02-01T12:00:05.507Z,1084
2017-02-01T12:01:05.516Z,1080
2017-02-01T12:02:05.527Z,1096
2017-02-01T12:03:05.531Z,1104
2017-02-01T12:04:05.551Z,1108
2017-02-01T12:05:05.169Z,1104
2017-02-01T12:06:05.596Z,1068
2017-02-01T12:07:05.197Z,1036
2017-02-01T12:08:05.605Z,1036
2017-02-01T12:09:05.608Z,1036
2017-02-01T12:10:05.231Z,1048
2017-02-01T12:11:05.255Z,1060
2017-02-01T12:12:05.256Z,1048
2017-02-01T12:13:05.663Z,1024
2017-02-01T12:14:05.296Z,1004
2017-02-01T12:15:04.893Z,1016
2017-02-01T12:16:05.304Z,1024
2017-02-01T12:17:04.919Z,1036
2017-02-01T12:18:05.728Z,1068
2017-02-01T12:19:05.343Z,1100
2017-02-01T12:20:04.959Z,1116
2017-02-01T12:21:04.965Z,1132
2017-02-01T12:22:05.441Z,1136
2017-02-01T12:23:05.395Z,1140
2017-02-01T12:24:05.404Z,1124
2017-02-01T12:25:05.806Z,1072
2017-02-01T12:26:05.823Z,1028
2017-02-01T12:27:05.839Z,1004
2017-02-01T12:28:05.855Z,1012
2017-02-01T12:29:05.863Z,1032
2017-02-01T12:30:05.888Z,1056
2017-02-01T12:31:05.496Z,1020
2017-02-01T12:32:05.496Z,984
2017-02-01T12:33:05.917Z,980
2017-02-01T12:34:05.937Z,1008
2017-02-01T12:35:05.149Z,1040
2017-02-01T12:36:05.563Z,1056
2017-02-01T12:37:05.965Z,1048
2017-02-01T12:38:05.983Z,1028
2017-02-01T12:39:05.985Z,1012
2017-02-01T12:40:06.003Z,1024
2017-02-01T12:41:05.615Z,1032
2017-02-01T12:42:05.638Z,972
2017-02-01T12:43:05.640Z,896
2017-02-01T12:44:06.049Z,916
2017-02-01T12:45:05.660Z,992
2017-02-01T12:46:06.093Z,1024
2017-02-01T12:47:05.693Z,976
2017-02-01T12:48:06.114Z,924
2017-02-01T12:49:06.124Z,920
2017-02-01T12:50:06.139Z,944
2017-02-01T12:51:05.748Z,936
2017-02-01T12:52:06.159Z,868
2017-02-01T12:53:06.165Z,772
2017-02-01T12:54:06.174Z,700
2017-02-01T12:55:05.397Z,700
2017-02-01T12:56:05.812Z,752
2017-02-01T12:57:06.218Z,796
2017-02-01T12:58:06.236Z,784
2017-02-01T12:59:06.240Z,756
2017-02-01T13:00:05.906Z,712
2017-02-01T13:01:06.269Z,680
2017-02-01T13:02:06.378Z,680
2017-02-01T13:03:05.902Z,684
2017-02-01T13:04:06.305Z,688
2017-02-01T13:05:06.318Z,700
2017-02-01T13:06:05.948Z,732
2017-02-01T13:07:05.946Z,772
2017-02-01T13:08:06.353Z,788
2017-02-01T13:09:05.972Z,764
2017-02-01T13:10:06.382Z,736
2017-02-01T13:11:06.390Z,736
2017-02-01T13:12:06.022Z,752
2017-02-01T13:13:06.028Z,768
2017-02-01T13:14:06.049Z,792
2017-02-01T13:15:06.451Z,832
2017-02-01T13:16:06.068Z,828
2017-02-01T13:17:06.471Z,808
2017-02-01T13:18:06.484Z,820
2017-02-01T13:19:06.498Z,836
2017-02-01T13:20:06.137Z,780
2017-02-01T13:21:06.526Z,716
2017-02-01T13:22:06.534Z,716
2017-02-01T13:23:06.551Z,764
2017-02-01T13:24:06.557Z,796
2017-02-01T13:25:06.179Z,828
2017-02-01T13:26:06.587Z,844
2017-02-01T13:27:06.607Z,820
2017-02-01T13:28:06.617Z,744
2017-02-01T13:29:06.627Z,676
2017-02-01T13:30:06.637Z,720
2017-02-01T13:31:06.651Z,764
2017-02-01T13:32:06.694Z,700
2017-02-01T13:33:06.932Z,648
2017-02-01T13:34:06.690Z,624
2017-02-01T13:35:06.707Z,568
2017-02-01T13:36:06.722Z,540
2017-02-01T13:37:06.331Z,556
2017-02-01T13:38:06.362Z,588
2017-02-01T13:39:06.756Z,596
2017-02-01T13:40:06.375Z,584
2017-02-01T13:41:06.386Z,556
2017-02-01T13:42:06.413Z,548
2017-02-01T13:43:06.422Z,544
2017-02-01T13:44:06.440Z,516
2017-02-01T13:45:06.441Z,496
2017-02-01T13:46:06.454Z,496
2017-02-01T13:47:06.469Z,512
2017-02-01T13:48:06.494Z,516
2017-02-01T13:49:06.094Z,508
2017-02-01T13:50:06.501Z,508
2017-02-01T13:51:06.916Z,524
2017-02-01T13:52:06.928Z,588
2017-02-01T13:53:06.542Z,676
2017-02-01T13:54:06.951Z,700
2017-02-01T13:55:06.963Z,720
2017-02-01T13:56:06.974Z,772
2017-02-01T13:57:06.992Z,760
2017-02-01T13:58:07.004Z,588
2017-02-01T13:59:07.022Z,436
2017-02-01T14:00:07.032Z,400
2017-02-01T14:01:07.049Z,392
2017-02-01T14:02:06.663Z,388
2017-02-01T14:03:07.074Z,396
2017-02-01T14:04:07.086Z,408
2017-02-01T14:05:07.094Z,436
2017-02-01T14:06:07.107Z,496
2017-02-01T14:07:07.159Z,568
2017-02-01T14:08:07.138Z,580
2017-02-01T14:09:07.145Z,556
2017-02-01T14:10:07.156Z,532
2017-02-01T14:11:07.167Z,548
2017-02-01T14:12:07.188Z,604
2017-02-01T14:13:06.803Z,624
2017-02-01T14:14:06.814Z,596